Time;durP1;ratioP1;P1;durP2;ratioP2;P2;SDS_P1;SDS_P2;PMS_P1;PMS_P2;Temp;Humidity;BMP_temperature;BMP_pressure;BME280_temperature;BME280_humidity;BME280_pressure;Samples;Min_cycle;Max_cycle;Signal;HPM_P1;HPM_P2
2022/04/02 00:00:22;;;;;;;;;;;4.40;83.90;;;;;;5056465;28;20349;-66
2022/04/02 00:02:48;;;;;;;;;;;4.40;83.90;;;;;;5057970;28;20175;-66
2022/04/02 00:05:13;;;;;;;;;;;4.40;83.90;;;;;;5054109;28;20464;-66
2022/04/02 00:07:39;;;;;;;;;;;4.40;83.90;;;;;;5055741;28;19939;-66
2022/04/02 00:10:05;;;;;;;;;;;4.40;83.90;;;;;;5045789;28;20371;-66
2022/04/02 00:12:31;;;;;;;;;;;4.40;83.90;;;;;;5055612;28;20348;-66
2022/04/02 00:14:57;;;;;;;;;;;4.40;83.90;;;;;;5053509;28;19908;-66
2022/04/02 00:17:22;;;;;;;;;;;4.40;83.90;;;;;;5056844;28;19916;-66
2022/04/02 00:19:48;;;;;;;;;;;4.40;83.90;;;;;;5062304;28;19920;-66
2022/04/02 00:22:13;;;;;;;;;;;4.40;83.90;;;;;;5052278;28;19912;-66
2022/04/02 00:24:39;;;;;;;;;;;4.40;83.90;;;;;;5052787;28;20279;-66
2022/04/02 00:27:04;;;;;;;;;;;4.40;83.80;;;;;;5058902;28;19909;-66
2022/04/02 00:29:30;;;;;;;;;;;4.40;83.90;;;;;;5062167;28;20644;-66
2022/04/02 00:31:56;;;;;;;;;;;4.40;83.80;;;;;;5052915;28;19963;-66
2022/04/02 00:34:22;;;;;;;;;;;4.40;83.90;;;;;;5056573;28;19916;-66
2022/04/02 00:36:48;;;;;;;;;;;4.40;83.90;;;;;;5045955;28;19975;-66
2022/04/02 00:39:13;;;;;;;;;;;4.40;83.90;;;;;;5051656;28;20640;-66
2022/04/02 00:41:39;;;;;;;;;;;4.40;83.90;;;;;;5053289;28;19920;-66
2022/04/02 00:44:14;;;;;;;;;;;4.40;83.90;;;;;;5058342;28;19951;-66
2022/04/02 00:46:41;;;;;;;;;;;4.40;83.90;;;;;;5051571;28;19917;-66
2022/04/02 00:49:07;;;;;;;;;;;4.30;83.80;;;;;;5057201;28;19920;-66
2022/04/02 00:51:33;;;;;;;;;;;4.40;83.90;;;;;;5058036;28;19912;-66
2022/04/02 00:53:59;;;;;;;;;;;4.40;83.90;;;;;;5061568;28;20289;-66
2022/04/02 00:56:24;;;;;;;;;;;4.40;83.90;;;;;;5047984;28;20322;-66
2022/04/02 00:58:50;;;;;;;;;;;4.40;83.90;;;;;;5055305;28;19916;-66
2022/04/02 01:01:16;;;;;;;;;;;4.30;83.80;;;;;;5058311;28;19912;-66
2022/04/02 01:03:43;;;;;;;;;;;4.40;83.80;;;;;;5058597;28;19958;-66
2022/04/02 01:06:10;;;;;;;;;;;4.40;83.90;;;;;;5052941;28;20001;-66
2022/04/02 01:08:36;;;;;;;;;;;4.30;83.80;;;;;;5055380;28;19997;-66
2022/04/02 01:11:03;;;;;;;;;;;4.30;83.80;;;;;;5060092;28;19960;-66
2022/04/02 01:13:29;;;;;;;;;;;4.30;83.80;;;;;;5048461;28;19999;-66
2022/04/02 01:15:56;;;;;;;;;;;4.30;83.80;;;;;;5051061;28;20004;-66
2022/04/02 01:18:22;;;;;;;;;;;4.30;83.70;;;;;;5057394;28;20524;-66
2022/04/02 01:20:48;;;;;;;;;;;4.30;83.70;;;;;;5058844;28;19913;-66
2022/04/02 01:23:14;;;;;;;;;;;4.30;83.90;;;;;;5039926;28;19913;-66
2022/04/02 01:25:40;;;;;;;;;;;4.30;83.70;;;;;;5055956;28;19913;-66
2022/04/02 01:28:05;;;;;;;;;;;4.30;83.80;;;;;;5060651;28;19962;-66
2022/04/02 01:30:31;;;;;;;;;;;4.30;83.80;;;;;;5057439;28;19916;-66
2022/04/02 01:32:57;;;;;;;;;;;4.30;83.80;;;;;;5037186;28;19913;-66
2022/04/02 01:35:23;;;;;;;;;;;4.30;83.70;;;;;;5040971;28;20426;-66
2022/04/02 01:37:49;;;;;;;;;;;4.30;83.80;;;;;;5044802;28;20440;-66
2022/04/02 01:40:14;;;;;;;;;;;4.30;83.70;;;;;;5052682;28;20293;-66
2022/04/02 01:42:40;;;;;;;;;;;4.30;83.70;;;;;;5056394;28;19912;-66
2022/04/02 01:45:06;;;;;;;;;;;4.30;83.70;;;;;;5076799;28;19920;-66
2022/04/02 01:47:32;;;;;;;;;;;4.30;83.70;;;;;;5051387;28;19917;-66
2022/04/02 01:49:57;;;;;;;;;;;4.30;83.70;;;;;;5056546;28;19974;-66
2022/04/02 01:52:23;;;;;;;;;;;4.30;83.80;;;;;;5058855;28;19912;-66
2022/04/02 01:54:49;;;;;;;;;;;4.30;83.70;;;;;;5056820;28;19998;-66
2022/04/02 01:57:15;;;;;;;;;;;4.30;83.70;;;;;;5044181;28;20521;-66
2022/04/02 01:59:44;;;;;;;;;;;4.30;83.70;;;;;;5043210;28;19932;-66
2022/04/02 02:02:09;;;;;;;;;;;4.30;83.70;;;;;;5060797;28;19912;-66
2022/04/02 02:04:36;;;;;;;;;;;4.30;83.80;;;;;;5035105;28;20421;-66
2022/04/02 02:07:03;;;;;;;;;;;4.30;83.70;;;;;;5055403;28;19909;-66
2022/04/02 02:09:28;;;;;;;;;;;4.30;83.70;;;;;;5058851;28;20234;-66
2022/04/02 02:11:54;;;;;;;;;;;4.20;83.70;;;;;;5061149;28;19913;-66
2022/04/02 02:14:19;;;;;;;;;;;4.20;83.70;;;;;;5052505;28;19924;-66
2022/04/02 02:16:45;;;;;;;;;;;4.20;83.70;;;;;;5059646;28;19916;-66
2022/04/02 02:19:10;;;;;;;;;;;4.20;83.70;;;;;;5063721;28;19912;-66
2022/04/02 02:21:36;;;;;;;;;;;4.20;83.90;;;;;;5053399;28;20373;-66
2022/04/02 02:24:02;;;;;;;;;;;4.20;83.70;;;;;;5057266;28;19962;-66
2022/04/02 02:26:27;;;;;;;;;;;4.20;83.60;;;;;;5061351;28;19951;-66
2022/04/02 02:28:53;;;;;;;;;;;4.20;83.70;;;;;;5067592;28;19919;-66
2022/04/02 02:31:18;;;;;;;;;;;4.20;83.70;;;;;;5061568;28;19963;-66
2022/04/02 02:36:27;;;;;;;;;;;4.20;83.70;;;;;;5063238;28;20002;-66
2022/04/02 02:38:53;;;;;;;;;;;4.20;83.70;;;;;;5055525;28;19913;-66
2022/04/02 02:41:19;;;;;;;;;;;4.20;83.70;;;;;;5058366;28;19912;-66
2022/04/02 02:43:45;;;;;;;;;;;4.20;83.70;;;;;;5060962;28;19912;-66
2022/04/02 02:46:17;;;;;;;;;;;4.20;83.70;;;;;;5063688;28;20350;-66
2022/04/02 02:48:43;;;;;;;;;;;4.20;83.60;;;;;;5045416;28;19927;-66
2022/04/02 02:51:08;;;;;;;;;;;4.20;83.60;;;;;;5060592;28;19980;-66
2022/04/02 02:53:34;;;;;;;;;;;4.20;83.50;;;;;;5063830;28;19924;-66
2022/04/02 02:55:59;;;;;;;;;;;4.20;83.60;;;;;;5055109;28;20018;-66
2022/04/02 02:58:25;;;;;;;;;;;4.20;83.60;;;;;;5057100;28;19908;-66
2022/04/02 03:00:50;;;;;;;;;;;4.20;83.60;;;;;;5061943;28;20289;-66
2022/04/02 03:03:16;;;;;;;;;;;4.10;83.50;;;;;;5059258;28;19914;-66
2022/04/02 03:05:42;;;;;;;;;;;4.10;83.50;;;;;;5060849;28;19920;-66
2022/04/02 03:08:08;;;;;;;;;;;4.10;83.50;;;;;;5061872;28;19914;-66
2022/04/02 03:10:34;;;;;;;;;;;4.20;83.50;;;;;;5062665;28;19912;-66
2022/04/02 03:12:59;;;;;;;;;;;4.10;83.50;;;;;;5050199;28;19916;-66
2022/04/02 03:15:25;;;;;;;;;;;4.20;83.50;;;;;;5053918;28;19913;-66
2022/04/02 03:17:52;;;;;;;;;;;4.10;83.30;;;;;;5041078;28;19917;-66
2022/04/02 03:20:18;;;;;;;;;;;4.10;83.30;;;;;;5058065;28;19915;-66
2022/04/02 03:22:45;;;;;;;;;;;4.10;83.40;;;;;;5057163;28;19912;-66
2022/04/02 03:25:12;;;;;;;;;;;4.10;83.40;;;;;;5058720;28;20653;-66
2022/04/02 03:27:38;;;;;;;;;;;4.10;83.30;;;;;;5062547;28;19991;-66
2022/04/02 03:30:05;;;;;;;;;;;4.10;83.30;;;;;;5056494;28;19959;-66
2022/04/02 03:32:31;;;;;;;;;;;4.10;83.40;;;;;;5052115;28;19923;-66
2022/04/02 03:34:57;;;;;;;;;;;4.10;83.30;;;;;;5059120;28;19913;-66
2022/04/02 03:37:24;;;;;;;;;;;4.10;83.30;;;;;;5057647;28;20612;-66
2022/04/02 03:39:50;;;;;;;;;;;4.10;83.30;;;;;;5057553;28;20225;-66
2022/04/02 03:42:15;;;;;;;;;;;4.10;83.30;;;;;;5041194;28;20008;-66
2022/04/02 03:44:41;;;;;;;;;;;4.10;83.30;;;;;;5062934;28;19913;-66
2022/04/02 03:47:09;;;;;;;;;;;4.10;83.20;;;;;;5060147;28;19917;-66
2022/04/02 03:49:38;;;;;;;;;;;4.10;83.30;;;;;;5059863;28;19920;-66
2022/04/02 03:52:04;;;;;;;;;;;4.10;83.10;;;;;;5059600;28;19944;-66
2022/04/02 03:54:30;;;;;;;;;;;4.10;83.30;;;;;;5062925;28;19916;-66
2022/04/02 03:56:55;;;;;;;;;;;4.00;83.20;;;;;;5056851;28;19921;-66
2022/04/02 03:59:21;;;;;;;;;;;4.10;83.30;;;;;;5059042;28;19912;-66
2022/04/02 04:01:46;;;;;;;;;;;4.00;83.20;;;;;;5060917;28;20473;-66
2022/04/02 04:04:13;;;;;;;;;;;4.00;83.20;;;;;;5051084;28;19909;-66
2022/04/02 04:06:38;;;;;;;;;;;4.10;83.20;;;;;;5054380;28;19920;-66
2022/04/02 04:09:04;;;;;;;;;;;4.00;83.20;;;;;;5046647;28;19913;-66
2022/04/02 04:11:29;;;;;;;;;;;4.10;83.20;;;;;;5053176;28;20354;-66
2022/04/02 04:13:56;;;;;;;;;;;4.00;83.20;;;;;;5052138;28;20508;-66
2022/04/02 04:16:22;;;;;;;;;;;4.10;83.20;;;;;;5055244;28;20295;-66
2022/04/02 04:18:48;;;;;;;;;;;4.00;83.00;;;;;;5059177;28;19912;-66
2022/04/02 04:21:14;;;;;;;;;;;4.00;83.10;;;;;;5049499;28;19913;-66
2022/04/02 04:23:43;;;;;;;;;;;4.00;83.10;;;;;;5034272;28;20065;-66
2022/04/02 04:26:09;;;;;;;;;;;4.00;83.00;;;;;;5039067;28;19955;-66
2022/04/02 04:28:38;;;;;;;;;;;4.00;83.00;;;;;;5061075;28;20541;-66
2022/04/02 04:31:04;;;;;;;;;;;4.00;83.00;;;;;;5051617;28;19913;-66
2022/04/02 04:33:30;;;;;;;;;;;4.00;83.00;;;;;;5037214;28;20003;-66
2022/04/02 04:35:56;;;;;;;;;;;4.00;83.00;;;;;;5058344;28;20335;-66
2022/04/02 04:38:22;;;;;;;;;;;4.00;83.00;;;;;;5052236;28;19909;-66
2022/04/02 04:40:47;;;;;;;;;;;4.00;83.00;;;;;;5042729;28;19920;-66
2022/04/02 04:43:13;;;;;;;;;;;4.00;83.00;;;;;;5057159;28;20277;-66
2022/04/02 04:45:38;;;;;;;;;;;4.00;83.00;;;;;;5054762;28;19916;-66
2022/04/02 04:48:04;;;;;;;;;;;4.00;83.00;;;;;;5038427;28;19998;-66
2022/04/02 04:50:29;;;;;;;;;;;4.00;82.90;;;;;;5057825;28;19913;-66
2022/04/02 04:52:55;;;;;;;;;;;4.00;83.00;;;;;;5057301;28;19909;-66
2022/04/02 04:55:21;;;;;;;;;;;4.00;82.90;;;;;;5056256;28;19928;-66
2022/04/02 04:57:50;;;;;;;;;;;3.90;83.50;;;;;;5051872;28;19982;-66
2022/04/02 05:00:15;;;;;;;;;;;4.00;82.90;;;;;;5058618;28;19955;-66
2022/04/02 05:02:44;;;;;;;;;;;3.90;82.80;;;;;;5056306;28;19948;-66
2022/04/02 05:05:12;;;;;;;;;;;4.00;82.80;;;;;;5039894;28;20636;-66
2022/04/02 05:07:38;;;;;;;;;;;4.00;83.50;;;;;;5055605;28;19970;-66
2022/04/02 05:10:03;;;;;;;;;;;3.90;82.80;;;;;;5054566;28;20339;-66
2022/04/02 05:12:29;;;;;;;;;;;3.90;82.80;;;;;;5052199;28;19913;-66
2022/04/02 05:14:54;;;;;;;;;;;3.90;82.80;;;;;;5050762;28;19999;-66
2022/04/02 05:17:20;;;;;;;;;;;3.90;82.80;;;;;;5057246;28;20722;-66
2022/04/02 05:19:45;;;;;;;;;;;3.90;82.70;;;;;;5055571;28;19912;-66
2022/04/02 05:22:11;;;;;;;;;;;3.90;82.70;;;;;;5050019;28;19913;-66
2022/04/02 05:24:37;;;;;;;;;;;3.90;82.70;;;;;;5052502;28;19909;-66
2022/04/02 05:27:03;;;;;;;;;;;3.90;82.60;;;;;;5054478;28;19920;-66
2022/04/02 05:29:29;;;;;;;;;;;3.90;82.70;;;;;;5056699;28;20446;-66
2022/04/02 05:31:55;;;;;;;;;;;3.90;82.60;;;;;;5044775;28;19908;-66
2022/04/02 05:34:21;;;;;;;;;;;3.90;82.70;;;;;;5056804;28;20007;-66
2022/04/02 05:36:46;;;;;;;;;;;4.00;82.70;;;;;;5052381;28;19927;-66
2022/04/02 05:39:12;;;;;;;;;;;3.90;82.60;;;;;;5046922;28;19992;-66
2022/04/02 05:41:37;;;;;;;;;;;3.90;82.60;;;;;;5055646;28;19924;-66
2022/04/02 05:44:04;;;;;;;;;;;3.90;82.60;;;;;;5060872;28;19919;-66
2022/04/02 05:46:29;;;;;;;;;;;4.00;82.60;;;;;;5049946;28;19920;-66
2022/04/02 05:48:55;;;;;;;;;;;3.90;82.50;;;;;;5056534;28;19916;-66
2022/04/02 05:51:20;;;;;;;;;;;4.00;82.60;;;;;;5059159;28;19935;-66
2022/04/02 05:53:46;;;;;;;;;;;4.00;82.40;;;;;;5053986;28;19920;-66
2022/04/02 05:56:11;;;;;;;;;;;4.00;82.50;;;;;;5058404;28;20007;-66
2022/04/02 05:58:37;;;;;;;;;;;4.00;82.40;;;;;;5056747;28;19919;-66
2022/04/02 06:01:03;;;;;;;;;;;4.00;82.40;;;;;;5060073;28;20309;-66
2022/04/02 06:03:28;;;;;;;;;;;4.00;82.40;;;;;;5053745;28;20011;-66
2022/04/02 06:05:54;;;;;;;;;;;4.00;82.40;;;;;;5053306;28;19985;-66
2022/04/02 06:08:20;;;;;;;;;;;4.00;82.30;;;;;;5056886;28;20189;-66
2022/04/02 06:10:45;;;;;;;;;;;4.00;82.30;;;;;;5057929;28;19919;-66
2022/04/02 06:13:12;;;;;;;;;;;4.00;82.30;;;;;;5059956;28;20484;-66
2022/04/02 06:15:37;;;;;;;;;;;4.00;82.20;;;;;;5055107;28;20485;-66
2022/04/02 06:18:03;;;;;;;;;;;4.00;82.20;;;;;;5045253;28;20365;-66
2022/04/02 06:20:28;;;;;;;;;;;4.00;82.10;;;;;;5048067;28;19916;-66
2022/04/02 06:22:54;;;;;;;;;;;4.00;82.20;;;;;;5056354;28;19975;-66
2022/04/02 06:25:19;;;;;;;;;;;4.10;82.10;;;;;;5058828;28;19908;-66
2022/04/02 06:27:46;;;;;;;;;;;4.10;82.20;;;;;;5050853;28;20035;-66
2022/04/02 06:30:12;;;;;;;;;;;4.10;82.00;;;;;;5054824;28;19921;-66
2022/04/02 06:32:38;;;;;;;;;;;4.10;82.00;;;;;;5039225;28;19960;-66
2022/04/02 06:35:04;;;;;;;;;;;4.10;82.00;;;;;;5057674;28;19940;-66
2022/04/02 06:37:34;;;;;;;;;;;4.10;82.00;;;;;;5054538;28;19928;-66
2022/04/02 06:39:59;;;;;;;;;;;4.10;81.90;;;;;;5055195;28;19916;-66
2022/04/02 06:42:25;;;;;;;;;;;4.10;81.80;;;;;;5058418;28;19909;-66
2022/04/02 06:44:50;;;;;;;;;;;4.10;81.80;;;;;;5053423;28;19916;-66
2022/04/02 06:47:16;;;;;;;;;;;4.10;81.60;;;;;;5052980;28;19917;-66
2022/04/02 06:49:41;;;;;;;;;;;4.20;81.70;;;;;;5056430;28;19913;-66
2022/04/02 06:52:07;;;;;;;;;;;4.20;81.60;;;;;;5054173;28;19999;-66
2022/04/02 06:54:33;;;;;;;;;;;4.20;81.60;;;;;;5056039;28;19916;-66
2022/04/02 06:56:59;;;;;;;;;;;4.20;81.50;;;;;;5051755;28;19963;-66
2022/04/02 06:59:24;;;;;;;;;;;4.20;81.50;;;;;;5058154;28;20306;-66
2022/04/02 07:01:50;;;;;;;;;;;4.20;81.40;;;;;;5060764;28;19935;-66
2022/04/02 07:04:16;;;;;;;;;;;4.30;81.40;;;;;;5052662;28;21590;-66
2022/04/02 07:06:44;;;;;;;;;;;4.30;81.30;;;;;;5052635;28;19958;-66
2022/04/02 07:09:10;;;;;;;;;;;4.30;81.30;;;;;;5054880;28;19912;-66
2022/04/02 07:11:36;;;;;;;;;;;4.30;81.30;;;;;;5052265;28;20003;-66
2022/04/02 07:14:01;;;;;;;;;;;4.30;81.20;;;;;;5054755;28;20022;-66
2022/04/02 07:16:28;;;;;;;;;;;4.30;81.10;;;;;;5057285;28;19912;-66
2022/04/02 07:18:53;;;;;;;;;;;4.40;81.10;;;;;;5054399;28;20365;-66
2022/04/02 07:21:21;;;;;;;;;;;4.40;81.10;;;;;;5053241;28;20003;-66
2022/04/02 07:23:46;;;;;;;;;;;4.40;81.10;;;;;;5053512;28;20001;-66
2022/04/02 07:26:12;;;;;;;;;;;4.40;81.00;;;;;;5055442;28;19917;-66
2022/04/02 07:28:38;;;;;;;;;;;4.50;80.90;;;;;;5057945;28;19912;-66
2022/04/02 07:31:03;;;;;;;;;;;4.50;80.90;;;;;;5052526;28;19912;-66
2022/04/02 07:33:29;;;;;;;;;;;4.50;80.90;;;;;;5055871;28;20396;-66
2022/04/02 07:35:55;;;;;;;;;;;4.50;80.90;;;;;;5052176;28;19921;-66
2022/04/02 07:38:22;;;;;;;;;;;4.50;80.80;;;;;;5052572;28;20012;-66
2022/04/02 07:41:17;;;;;;;;;;;4.50;80.80;;;;;;5053711;28;19913;-66
2022/04/02 07:43:46;;;;;;;;;;;4.60;80.70;;;;;;5051401;28;19970;-66
2022/04/02 07:46:24;;;;;;;;;;;4.60;80.60;;;;;;5053188;28;19952;-66
2022/04/02 07:48:49;;;;;;;;;;;4.60;80.60;;;;;;5051839;28;20369;-66
2022/04/02 07:51:16;;;;;;;;;;;4.70;80.60;;;;;;5056022;28;19909;-66
2022/04/02 07:53:43;;;;;;;;;;;4.70;80.40;;;;;;5052832;28;20499;-66
2022/04/02 07:56:12;;;;;;;;;;;4.70;80.20;;;;;;5051844;28;19956;-66
2022/04/02 07:58:38;;;;;;;;;;;4.70;80.20;;;;;;5047252;28;20062;-66
2022/04/02 08:01:04;;;;;;;;;;;4.80;80.20;;;;;;5055306;28;19912;-66
2022/04/02 08:03:30;;;;;;;;;;;4.80;80.10;;;;;;5056798;28;20290;-66
2022/04/02 08:05:56;;;;;;;;;;;4.80;80.00;;;;;;5050706;28;19938;-66
2022/04/02 08:08:25;;;;;;;;;;;4.90;80.00;;;;;;5041395;28;19917;-66
2022/04/02 08:10:55;;;;;;;;;;;4.90;79.90;;;;;;5045306;28;19916;-66
2022/04/02 08:13:21;;;;;;;;;;;4.90;79.70;;;;;;5040072;28;19920;-66
2022/04/02 08:15:47;;;;;;;;;;;5.00;79.80;;;;;;5056924;28;19912;-66
2022/04/02 08:18:16;;;;;;;;;;;5.00;79.70;;;;;;5052266;28;19909;-66
2022/04/02 08:20:42;;;;;;;;;;;5.00;79.70;;;;;;5055813;28;19932;-66
2022/04/02 08:23:07;;;;;;;;;;;5.00;79.70;;;;;;5049519;28;20432;-66
2022/04/02 08:25:35;;;;;;;;;;;5.10;79.50;;;;;;5052566;28;19972;-66
2022/04/02 08:28:13;;;;;;;;;;;5.10;79.50;;;;;;5053539;28;19925;-66
2022/04/02 08:30:47;;;;;;;;;;;5.10;79.30;;;;;;5038304;28;19967;-66
2022/04/02 08:33:13;;;;;;;;;;;5.20;79.30;;;;;;5053073;28;20479;-66
2022/04/02 08:35:44;;;;;;;;;;;5.30;79.20;;;;;;5049419;28;19946;-66
2022/04/02 08:38:15;;;;;;;;;;;5.30;79.10;;;;;;5044961;28;19916;-66
2022/04/02 08:41:00;;;;;;;;;;;5.30;79.00;;;;;;5051814;28;20558;-66
2022/04/02 08:43:44;;;;;;;;;;;5.40;78.90;;;;;;5053591;28;20532;-66
2022/04/02 08:46:30;;;;;;;;;;;5.40;78.80;;;;;;5052392;28;19945;-66
2022/04/02 08:48:59;;;;;;;;;;;5.40;78.70;;;;;;5053519;28;19916;-66
2022/04/02 08:51:41;;;;;;;;;;;5.50;78.70;;;;;;5055725;28;20494;-66
2022/04/02 08:54:16;;;;;;;;;;;5.50;78.60;;;;;;5051769;28;19928;-66
2022/04/02 08:56:45;;;;;;;;;;;5.50;78.50;;;;;;5052373;28;20379;-66
2022/04/02 08:59:15;;;;;;;;;;;5.60;78.50;;;;;;5059150;28;20333;-66
2022/04/02 09:01:42;;;;;;;;;;;5.60;78.40;;;;;;5050916;28;20001;-66
2022/04/02 09:04:37;;;;;;;;;;;5.60;78.30;;;;;;5054518;28;19913;-66
2022/04/02 09:07:02;;;;;;;;;;;5.70;78.30;;;;;;5054201;28;20529;-66
2022/04/02 09:09:46;;;;;;;;;;;5.70;78.20;;;;;;5051604;28;19916;-66
2022/04/02 09:12:20;;;;;;;;;;;5.80;78.20;;;;;;5058832;28;19921;-66
2022/04/02 09:15:01;;;;;;;;;;;5.80;78.00;;;;;;5050194;28;19920;-66
2022/04/02 09:17:45;;;;;;;;;;;5.80;77.80;;;;;;5050290;28;19917;-66
2022/04/02 09:20:31;;;;;;;;;;;5.90;77.80;;;;;;5055140;28;20361;-66
2022/04/02 09:23:06;;;;;;;;;;;5.90;77.70;;;;;;5024208;28;19947;-66
2022/04/02 09:25:45;;;;;;;;;;;5.90;77.60;;;;;;5050795;28;19920;-66
2022/04/02 09:28:11;;;;;;;;;;;5.90;77.60;;;;;;5057990;28;20838;-66
2022/04/02 09:30:55;;;;;;;;;;;5.90;77.80;;;;;;5055333;28;19913;-66
2022/04/02 09:33:27;;;;;;;;;;;5.90;77.80;;;;;;5051057;28;19912;-66
2022/04/02 09:35:52;;;;;;;;;;;6.00;77.60;;;;;;5049618;28;19958;-66
2022/04/02 09:38:30;;;;;;;;;;;6.00;77.50;;;;;;5052909;28;19917;-66
2022/04/02 09:41:03;;;;;;;;;;;6.10;77.40;;;;;;5044771;28;19948;-66
2022/04/02 09:43:31;;;;;;;;;;;6.10;77.20;;;;;;5049329;28;20473;-66
2022/04/02 09:46:13;;;;;;;;;;;6.20;77.10;;;;;;5053768;28;19913;-66
2022/04/02 09:49:11;;;;;;;;;;;6.10;77.20;;;;;;5048688;28;19979;-66
2022/04/02 09:51:40;;;;;;;;;;;6.20;77.10;;;;;;5021254;28;19916;-66
2022/04/02 09:54:29;;;;;;;;;;;6.20;77.20;;;;;;5056701;28;20340;-66
2022/04/02 09:57:01;;;;;;;;;;;6.20;77.00;;;;;;5021681;28;20629;-66
2022/04/02 09:59:46;;;;;;;;;;;6.20;76.90;;;;;;5053811;28;19909;-66
2022/04/02 10:02:21;;;;;;;;;;;6.20;76.80;;;;;;5050901;28;19912;-66
2022/04/02 10:04:51;;;;;;;;;;;6.30;76.70;;;;;;5053891;28;19912;-66
2022/04/02 10:07:29;;;;;;;;;;;6.30;76.70;;;;;;5050163;28;20616;-66
2022/04/02 10:09:57;;;;;;;;;;;6.40;76.60;;;;;;5052244;28;20318;-66
2022/04/02 10:12:26;;;;;;;;;;;6.40;76.70;;;;;;5055051;28;19967;-66
2022/04/02 10:14:58;;;;;;;;;;;6.40;76.70;;;;;;5052155;28;19919;-66
2022/04/02 10:17:31;;;;;;;;;;;6.40;76.50;;;;;;5053563;28;19917;-66
2022/04/02 10:19:57;;;;;;;;;;;6.40;76.60;;;;;;5058305;28;19913;-66
2022/04/02 10:22:34;;;;;;;;;;;6.40;76.60;;;;;;5048076;28;19970;-66
2022/04/02 10:25:01;;;;;;;;;;;6.40;76.50;;;;;;5043659;28;19963;-66
2022/04/02 10:27:26;;;;;;;;;;;6.40;76.40;;;;;;5043986;28;20225;-66
2022/04/02 10:30:01;;;;;;;;;;;6.40;76.20;;;;;;5054900;28;19934;-66
2022/04/02 10:32:38;;;;;;;;;;;6.40;76.60;;;;;;5048749;28;19913;-66
2022/04/02 10:35:07;;;;;;;;;;;6.40;76.70;;;;;;5056061;28;19916;-66
2022/04/02 10:37:40;;;;;;;;;;;6.30;76.70;;;;;;5056077;28;20026;-66
2022/04/02 10:40:07;;;;;;;;;;;6.40;76.60;;;;;;5053721;28;19944;-66
2022/04/02 10:42:36;;;;;;;;;;;6.50;76.40;;;;;;5053440;28;19916;-66
2022/04/02 10:45:07;;;;;;;;;;;6.50;76.20;;;;;;5058212;28;19917;-66
2022/04/02 10:47:37;;;;;;;;;;;6.50;76.20;;;;;;5055272;28;19920;-66
2022/04/02 10:50:04;;;;;;;;;;;6.60;76.00;;;;;;5055883;28;20011;-66
2022/04/02 10:52:30;;;;;;;;;;;6.60;75.90;;;;;;5052451;28;20410;-66
2022/04/02 10:54:56;;;;;;;;;;;6.60;75.80;;;;;;5058191;28;19944;-66
2022/04/02 10:57:22;;;;;;;;;;;6.60;76.00;;;;;;5050258;28;20399;-66
2022/04/02 10:59:48;;;;;;;;;;;6.60;76.00;;;;;;5054317;28;19926;-66
2022/04/02 11:02:22;;;;;;;;;;;6.60;76.00;;;;;;5056606;28;20025;-66
2022/04/02 11:04:56;;;;;;;;;;;6.50;76.00;;;;;;5058898;28;19912;-66
2022/04/02 11:07:28;;;;;;;;;;;6.60;76.20;;;;;;5051859;28;20386;-66
2022/04/02 11:09:54;;;;;;;;;;;6.50;76.30;;;;;;5044785;28;19913;-66
2022/04/02 11:12:27;;;;;;;;;;;6.40;76.50;;;;;;5043691;28;19912;-66
2022/04/02 11:14:53;;;;;;;;;;;6.50;76.60;;;;;;5050966;28;19916;-67
2022/04/02 11:17:32;;;;;;;;;;;6.50;76.60;;;;;;5053191;28;19921;-66
2022/04/02 11:20:02;;;;;;;;;;;6.50;76.40;;;;;;5059437;28;19924;-66
2022/04/02 11:22:46;;;;;;;;;;;6.50;76.50;;;;;;5053460;28;19909;-66
2022/04/02 11:25:20;;;;;;;;;;;6.50;76.50;;;;;;5051210;28;19909;-66
2022/04/02 11:27:48;;;;;;;;;;;6.50;76.70;;;;;;5055697;28;20379;-66
2022/04/02 11:30:15;;;;;;;;;;;6.50;76.90;;;;;;5040331;28;19913;-66
2022/04/02 11:32:42;;;;;;;;;;;6.50;76.80;;;;;;5051541;28;19913;-66
2022/04/02 11:35:09;;;;;;;;;;;6.40;76.90;;;;;;5055146;28;19955;-66
2022/04/02 11:37:39;;;;;;;;;;;6.50;76.90;;;;;;5059084;28;20276;-66
2022/04/02 11:40:08;;;;;;;;;;;6.40;76.80;;;;;;5050730;28;19986;-66
2022/04/02 11:42:34;;;;;;;;;;;6.50;76.90;;;;;;5049447;28;19944;-67
2022/04/02 11:45:02;;;;;;;;;;;6.40;77.10;;;;;;5053906;28;19966;-66
2022/04/02 11:47:29;;;;;;;;;;;6.40;77.10;;;;;;5057335;28;19916;-67
2022/04/02 11:50:01;;;;;;;;;;;6.30;77.30;;;;;;5039148;28;19932;-66
2022/04/02 11:52:27;;;;;;;;;;;6.30;77.30;;;;;;5057186;28;19908;-67
2022/04/02 11:54:52;;;;;;;;;;;6.30;77.40;;;;;;5057522;28;19987;-67
2022/04/02 11:57:18;;;;;;;;;;;6.30;77.50;;;;;;5047318;28;19917;-66
2022/04/02 11:59:57;;;;;;;;;;;6.30;77.50;;;;;;5036192;28;19912;-66
2022/04/02 12:02:37;;;;;;;;;;;6.20;77.60;;;;;;5052394;28;20401;-66
2022/04/02 12:05:05;;;;;;;;;;;6.30;77.70;;;;;;5051562;28;20007;-66
2022/04/02 12:07:44;;;;;;;;;;;6.30;77.70;;;;;;5053518;28;20007;-66
2022/04/02 12:10:16;;;;;;;;;;;6.30;77.60;;;;;;5055075;28;20533;-66
2022/04/02 12:12:49;;;;;;;;;;;6.30;77.60;;;;;;5057099;28;19932;-67
2022/04/02 12:15:15;;;;;;;;;;;6.30;77.60;;;;;;5055126;28;19913;-66
2022/04/02 12:17:45;;;;;;;;;;;6.30;77.60;;;;;;5035805;28;19921;-66
2022/04/02 12:20:11;;;;;;;;;;;6.30;77.60;;;;;;5061873;28;19957;-66
2022/04/02 12:22:39;;;;;;;;;;;6.30;77.50;;;;;;5053501;28;19917;-66
2022/04/02 12:25:08;;;;;;;;;;;6.30;77.60;;;;;;5046710;28;19916;-66
2022/04/02 12:27:35;;;;;;;;;;;6.20;77.50;;;;;;5069858;28;19973;-66
2022/04/02 12:30:02;;;;;;;;;;;6.20;77.60;;;;;;5059714;28;19913;-66
2022/04/02 12:32:31;;;;;;;;;;;6.30;77.70;;;;;;5051794;28;20295;-66
2022/04/02 12:34:59;;;;;;;;;;;6.30;77.70;;;;;;5055080;28;19934;-66
2022/04/02 12:37:27;;;;;;;;;;;6.30;77.60;;;;;;5056900;28;19917;-66
2022/04/02 12:39:53;;;;;;;;;;;6.30;77.50;;;;;;5053555;28;20624;-66
2022/04/02 12:42:35;;;;;;;;;;;6.40;77.50;;;;;;5056302;28;19916;-66
2022/04/02 12:45:07;;;;;;;;;;;6.40;77.40;;;;;;5072387;28;19924;-66
2022/04/02 12:47:34;;;;;;;;;;;6.30;77.20;;;;;;5056183;28;19921;-66
2022/04/02 12:50:12;;;;;;;;;;;6.40;77.20;;;;;;5051058;28;19913;-66
2022/04/02 12:52:45;;;;;;;;;;;6.40;77.20;;;;;;5052865;28;19908;-66
2022/04/02 12:55:24;;;;;;;;;;;6.40;77.10;;;;;;5039360;28;20388;-66
2022/04/02 12:58:00;;;;;;;;;;;6.40;77.10;;;;;;5051667;28;19916;-66
2022/04/02 13:00:37;;;;;;;;;;;6.40;77.10;;;;;;5055674;28;20494;-66
2022/04/02 13:03:03;;;;;;;;;;;6.40;77.00;;;;;;5059622;28;20045;-66
2022/04/02 13:05:44;;;;;;;;;;;6.40;76.90;;;;;;5051410;28;19998;-66
2022/04/02 13:08:30;;;;;;;;;;;6.40;76.90;;;;;;5049209;28;20289;-66
2022/04/02 13:11:00;;;;;;;;;;;6.50;76.80;;;;;;5056930;28;19913;-66
2022/04/02 13:13:41;;;;;;;;;;;6.60;76.60;;;;;;5054544;28;19916;-66
2022/04/02 13:16:09;;;;;;;;;;;6.70;76.30;;;;;;5057543;28;20567;-66
2022/04/02 13:21:22;;;;;;;;;;;6.70;76.20;;;;;;5016171;28;19981;-66
2022/04/02 13:23:58;;;;;;;;;;;6.80;76.20;;;;;;5049443;28;19916;-66
2022/04/02 13:26:31;;;;;;;;;;;6.80;76.20;;;;;;5043627;28;20343;-66
2022/04/02 13:29:15;;;;;;;;;;;6.70;76.20;;;;;;5059095;28;20265;-66
2022/04/02 13:32:09;;;;;;;;;;;6.70;76.20;;;;;;5052517;28;19913;-66
2022/04/02 13:34:49;;;;;;;;;;;6.70;76.40;;;;;;5040613;28;19920;-66
2022/04/02 13:37:34;;;;;;;;;;;6.70;76.50;;;;;;5057776;28;19956;-66
2022/04/02 13:40:00;;;;;;;;;;;6.70;76.20;;;;;;5038005;28;20013;-66
2022/04/02 13:42:27;;;;;;;;;;;6.80;76.60;;;;;;5034531;28;19959;-66
2022/04/02 13:44:56;;;;;;;;;;;6.80;76.60;;;;;;5056452;28;20342;-66
2022/04/02 13:47:23;;;;;;;;;;;6.80;76.50;;;;;;5054545;28;19919;-66
2022/04/02 13:49:56;;;;;;;;;;;6.80;77.00;;;;;;5054375;28;20400;-66
2022/04/02 13:52:23;;;;;;;;;;;6.90;76.30;;;;;;5052479;28;19912;-66
2022/04/02 13:55:02;;;;;;;;;;;6.90;76.10;;;;;;5057329;28;19955;-66
2022/04/02 13:57:32;;;;;;;;;;;6.90;76.20;;;;;;5050207;28;20350;-66
2022/04/02 13:59:57;;;;;;;;;;;7.10;75.80;;;;;;5053241;28;19992;-66
2022/04/02 14:02:27;;;;;;;;;;;7.10;75.80;;;;;;5057998;28;19915;-66
2022/04/02 14:05:11;;;;;;;;;;;7.10;75.70;;;;;;5057470;28;19928;-66
2022/04/02 14:07:43;;;;;;;;;;;7.10;75.90;;;;;;5054602;28;20035;-66
2022/04/02 14:10:12;;;;;;;;;;;7.10;75.90;;;;;;5040794;28;19912;-66
2022/04/02 14:12:41;;;;;;;;;;;7.10;75.90;;;;;;5062867;28;20341;-66
2022/04/02 14:15:07;;;;;;;;;;;7.20;75.80;;;;;;5053415;28;19924;-66
2022/04/02 14:17:38;;;;;;;;;;;7.20;75.60;;;;;;5056310;28;19913;-66
2022/04/02 14:20:05;;;;;;;;;;;7.30;75.60;;;;;;5045017;28;19926;-66
2022/04/02 14:22:33;;;;;;;;;;;7.30;75.10;;;;;;5064741;28;19963;-66
2022/04/02 14:25:02;;;;;;;;;;;7.40;75.20;;;;;;5056223;28;19961;-66
2022/04/02 14:27:47;;;;;;;;;;;7.40;75.00;;;;;;5057051;28;19909;-66
2022/04/02 14:30:13;;;;;;;;;;;7.50;75.00;;;;;;5043518;28;19916;-66
2022/04/02 14:32:51;;;;;;;;;;;7.60;74.90;;;;;;5056920;28;19966;-66
2022/04/02 14:35:19;;;;;;;;;;;7.70;74.60;;;;;;5056362;28;19919;-66
2022/04/02 14:38:04;;;;;;;;;;;7.70;74.70;;;;;;5061423;28;20626;-66
2022/04/02 14:40:41;;;;;;;;;;;7.70;74.50;;;;;;5057277;28;20055;-66
2022/04/02 14:43:22;;;;;;;;;;;7.70;74.50;;;;;;5058403;28;19916;-66
2022/04/02 14:46:03;;;;;;;;;;;7.80;74.60;;;;;;5062275;28;19912;-66